Aérodrome :
LOGIN :

S'inscrire | Disclaimer

   EN    FR    IT 

 










Légende :    VFR   VFR Marginal   IFR   IFR Intensif   IFR Très Intensif
Visi : 
Plafond : 
>= 8 km
>= 3000ft
5 à 8 km
1000 à 3000 ft
1500m à 5 km
500 à 1000 ft
800 à 1500m
200 à 500 ft
< 800m
< 200 ft
Symboles :   Orages  Brouillard  Fortes neiges  Fortes précipitations  Vent > 20 kt
SIGMETs :   Divers  Orages  Givrage  Turbulence  Onde Orograph.  Cendres Volcan.







- Altitude de l'aérodrome : -11 ft
- Code IATA : AMS


EHAM - Amsterdam Schiphol

DERNIER METAR :
  • 270255Z 26003KT 9999 FEW027 01/M01 Q1016 NOSIG

METARs EXPIRÉS :
  • 270225Z 35003KT 330V030 9999 FEW027TCU 01/M00 Q1016 TEMPO 35015KT 7000 -SHRA
  • 270155Z 33001KT 9999 FEW027CB 01/M00 Q1016 TEMPO 35015KT 7000 -SHRA
  • 270125Z 31002KT 9999 FEW029 02/00 Q1016 TEMPO 35015KT 7000 -SHRA FEW020CB
  • 270055Z 27004KT 9999 FEW029 01/M01 Q1016 NOSIG
  • 270025Z 29003KT 9999 FEW029 02/M01 Q1016 NOSIG
  • 262355Z 36004KT 330V030 9999 FEW029 03/01 Q1016 NOSIG

TAF TAF EHAM
Valide du 27 à 00h jusqu'au 28 à 06h UTC


262313Z 2700/2806 30005KT 9999 SCT025
PROB30
TEMPO 2706/2713 7000 -SHRA FEW020CB
BECMG 2709/2712 26013KT
PROB40
TEMPO 2717/2802 7000 -RA BKN014
BECMG 2718/2721 23006KT
PROB30
TEMPO 2802/2806 7000 -SHRA FEW020CB
Pas de NOTAMs connus pour ce terrain.



MET'MAP, la Météo Aéronautique d'un coup d'oeil ! - Copyright ORBIFLY Décembre 2007 - Disclaimer

ORBIFLY MET'MAP TEAM :

Programmation & Développement : Alexandra Zaïnal
Conception & Développement : Baudouin d'Aumeries
Co-Programmation & Développement : Marc-Olivier Méhu
Soutien technique & logistique : Manuel Goepfert

Contact : metmap@orbifly.com




SOURCES & CREDITS :

   NOAA